หน้าหลัก
METAR-TAF:

METAR-TAF

ท่าอากาศยาน :

Dalcahue, ชิลี

ละติจูด: 42-20-25S, ลองจิจูด: 073-42-56W, ความสูง: 161 ม.

การสังเกตสภาพอากาศปัจจุบัน

รายงานได้ทำขึ้นเมื่อ 46 นาทีที่แล้ว ณ เวลา 19:00 UTC
ลม 3 นอตจากเหนือ, แปรผันระหว่างตะวันตกเฉียงเหนือ และเหนือ/ตะวันออกเฉียงเหนือ
อุณหภูมิ 6°C
ความชื้น 87%
ความกดอากาศ 1022 hPa
ทัศนวิสัย 10 กม. หรือมากกว่า
มีเมฆน้อยที่ความสูง 500 ฟุต
มีเมฆเป็นส่วนมากเว้นเป็นระยะที่ความสูง 5000 ฟุต

METAR: SCPQ 201900Z 35003KT 310V020 9999 FEW005 BKN050 06/04 Q1022

เวลา: 15:46 (19:46 UTC)

การพยากรณ์

รายงานได้ทำขึ้นเมื่อ 8 ชั่วโมงและ 56 นาทีที่แล้ว ณ เวลา 10:50 UTC
การพยากรณ์มีผลตั้งแต่วันที่ 20 ณ เวลา 12 UTC จนถึงวันที่ 20 ณ เวลา 24 UTC
ลม 5 นอตจากใต้
ทัศนวิสัย 10 กม. หรือมากกว่า
มีเมฆเป็นส่วนมากเว้นเป็นระยะที่ความสูง 400 ฟุต
กำลังกลายเป็น
ตั้งแต่วันที่ 20 ณ เวลา 14 UTC จนถึงวันที่ 20 ณ เวลา 16 UTC
มีเมฆเป็นส่วนมากเว้นเป็นระยะที่ความสูง 2500 ฟุต

TAF: SCPQ 201050Z 2012/2024 19005KT 9999 BKN004 TN01/2012Z TX09/2019Z BECMG 2014/2016 BKN025

สังเกตการณ์สภาพอากาศและพยากรณ์อากาศของสนามบินมากกว่า 4000 แห่ง (รายงาน METAR และ TAF).

สถานีที่ดูได้จะแสดงไว้ด้วยจุดสีเหลืองและสีแดงบนแผนที่.

เลื่อนเมาส์ไปเหนือจุดเพื่อดูชื่อสถานี.

แล้วคลิกเพื่อดูสังเกตการณ์และการพยากรณ์สภาพอากาศ.

ในการเปลี่ยนแผนที่: คลิกที่ปุ่มสีเขียวที่มีกากบาทสีดำเพื่อซูมเข้า; ที่ปุ่มสีเขียวที่มีขีดเพื่อซูมออก; หรือที่ลูกศรสีเขียวเพื่อไปยังแผนที่ที่อยู่ติดกัน.


METAR-TAF: